createdAt,value
2023-02-20T00:01:24.939Z,8.83
2023-02-20T00:03:53.960Z,4.60
2023-02-20T00:06:21.641Z,7.27
2023-02-20T00:08:49.360Z,6.37
2023-02-20T00:11:17.183Z,11.77
2023-02-20T00:13:46.680Z,8.77
2023-02-20T00:16:14.517Z,7.23
2023-02-20T00:18:42.408Z,4.80
2023-02-20T00:21:11.334Z,7.30
2023-02-20T00:23:38.995Z,5.60
2023-02-20T00:26:10.211Z,7.17
2023-02-20T00:28:39.369Z,6.27
2023-02-20T00:31:07.607Z,4.97
2023-02-20T00:33:36.722Z,10.23
2023-02-20T00:36:04.827Z,5.90
2023-02-20T00:38:33.822Z,6.37
2023-02-20T00:41:01.489Z,8.57
2023-02-20T00:43:29.391Z,6.70
2023-02-20T00:45:56.995Z,4.33
2023-02-20T00:48:24.621Z,7.53
2023-02-20T00:50:54.681Z,8.60
2023-02-20T00:53:22.408Z,7.93
2023-02-20T00:55:51.350Z,6.10
2023-02-20T00:58:19.154Z,5.83
2023-02-20T01:00:48.228Z,7.53
2023-02-20T01:03:16.081Z,5.33
2023-02-20T01:05:43.686Z,5.13
2023-02-20T01:08:11.624Z,8.20
2023-02-20T01:10:39.478Z,8.83
2023-02-20T01:13:08.800Z,7.93
2023-02-20T01:15:36.473Z,10.73
2023-02-20T01:18:05.713Z,9.03
2023-02-20T01:20:33.486Z,4.93
2023-02-20T01:23:01.355Z,7.30
2023-02-20T01:25:29.084Z,8.50
2023-02-20T01:27:56.978Z,6.10
2023-02-20T01:30:27.336Z,7.37
2023-02-20T01:32:55.138Z,6.30
2023-02-20T01:35:22.860Z,10.33
2023-02-20T01:37:52.008Z,7.60
2023-02-20T01:40:21.751Z,6.20
2023-02-20T01:42:49.415Z,8.03
2023-02-20T01:45:20.588Z,6.87
2023-02-20T01:47:51.849Z,8.23
2023-02-20T01:50:22.210Z,6.73
2023-02-20T01:52:53.634Z,7.83
2023-02-20T01:55:25.403Z,8.20
2023-02-20T01:57:56.128Z,5.13
2023-02-20T02:00:28.139Z,7.10
2023-02-20T02:03:04.345Z,6.60
2023-02-20T02:05:32.789Z,7.90
2023-02-20T02:08:02.467Z,6.87
2023-02-20T02:10:36.734Z,8.53
2023-02-20T02:13:04.785Z,7.40
2023-02-20T02:15:32.372Z,7.37
2023-02-20T02:18:18.224Z,6.00
2023-02-20T02:21:23.918Z,5.67
2023-02-20T02:24:20.896Z,6.20
2023-02-20T02:27:10.664Z,6.13
2023-02-20T02:30:04.178Z,8.23
2023-02-20T02:33:12.112Z,7.07
2023-02-20T02:36:26.546Z,7.73
2023-02-20T02:39:01.811Z,5.80
2023-02-20T02:41:39.938Z,6.03
2023-02-20T02:44:14.208Z,6.80
2023-02-20T02:46:45.636Z,8.20
2023-02-20T02:49:20.445Z,8.00
2023-02-20T02:51:51.840Z,6.63
2023-02-20T02:54:26.139Z,7.70
2023-02-20T02:56:55.309Z,7.23
2023-02-20T02:59:28.888Z,7.07
2023-02-20T03:02:02.677Z,8.73
2023-02-20T03:04:33.716Z,8.53
2023-02-20T03:07:09.706Z,11.10
2023-02-20T03:09:40.062Z,7.47
2023-02-20T03:12:10.933Z,9.50
2023-02-20T03:15:01.597Z,8.70
2023-02-20T03:17:33.136Z,8.80
2023-02-20T03:20:03.694Z,8.87
2023-02-20T03:22:37.730Z,8.87
2023-02-20T03:25:10.866Z,7.90
2023-02-20T03:27:42.874Z,9.43
2023-02-20T03:30:17.576Z,8.67
2023-02-20T03:33:05.762Z,10.57
2023-02-20T03:35:54.743Z,9.03
2023-02-20T03:38:43.216Z,9.90
2023-02-20T03:41:31.792Z,9.10
2023-02-20T03:44:01.460Z,6.90
2023-02-20T03:46:34.607Z,7.83
2023-02-20T03:49:06.889Z,7.10
2023-02-20T03:51:52.047Z,8.07
2023-02-20T03:54:21.127Z,7.80
2023-02-20T03:56:53.142Z,8.53
2023-02-20T03:59:24.647Z,10.00
2023-02-20T04:01:55.802Z,7.50
2023-02-20T04:04:27.594Z,9.40
2023-02-20T04:06:56.967Z,8.60
2023-02-20T04:09:31.372Z,8.87
2023-02-20T04:12:05.225Z,8.10
2023-02-20T04:14:33.320Z,8.67
2023-02-20T04:17:06.931Z,10.10
2023-02-20T04:19:35.182Z,9.57
2023-02-20T04:22:05.238Z,11.93
2023-02-20T04:24:39.442Z,8.83
2023-02-20T04:27:07.287Z,12.77
2023-02-20T04:29:35.060Z,9.40
2023-02-20T04:32:02.814Z,10.57
2023-02-20T04:34:31.055Z,11.10
2023-02-20T04:37:06.731Z,10.43
2023-02-20T04:39:36.179Z,8.60
2023-02-20T04:42:04.356Z,13.27
2023-02-20T04:44:35.218Z,13.93
2023-02-20T04:47:05.109Z,14.13
2023-02-20T04:49:33.099Z,13.13
2023-02-20T04:52:00.972Z,13.93
2023-02-20T04:54:28.644Z,11.63
2023-02-20T04:56:57.643Z,11.53
2023-02-20T04:59:25.386Z,12.00
2023-02-20T05:01:54.807Z,14.13
2023-02-20T05:04:23.713Z,12.40
2023-02-20T05:06:53.938Z,13.03
2023-02-20T05:09:22.583Z,12.20
2023-02-20T05:11:50.686Z,13.47
2023-02-20T05:14:20.243Z,12.50
2023-02-20T05:16:49.169Z,14.40
2023-02-20T05:19:16.794Z,13.13
2023-02-20T05:22:02.414Z,16.87
2023-02-20T05:24:32.085Z,13.07
2023-02-20T05:27:00.166Z,13.17
2023-02-20T05:29:29.271Z,14.33
2023-02-20T05:31:57.130Z,14.77
2023-02-20T05:34:25.774Z,15.00
2023-02-20T05:36:54.251Z,16.07
2023-02-20T05:39:22.600Z,16.00
2023-02-20T05:41:50.301Z,12.53
2023-02-20T05:44:18.180Z,15.67
2023-02-20T05:46:47.292Z,16.27
2023-02-20T05:49:15.555Z,15.70
2023-02-20T05:51:43.540Z,16.40
2023-02-20T05:54:11.154Z,19.07
2023-02-20T05:56:42.811Z,17.23
2023-02-20T05:59:10.643Z,17.27
2023-02-20T06:01:38.476Z,14.83
2023-02-20T06:04:07.747Z,20.60
2023-02-20T06:06:37.758Z,16.60
2023-02-20T06:09:08.078Z,18.40
2023-02-20T06:11:36.046Z,16.23
2023-02-20T06:14:05.823Z,15.73
2023-02-20T06:16:36.361Z,21.63
2023-02-20T06:19:05.286Z,20.00
2023-02-20T06:21:35.841Z,16.50
2023-02-20T06:24:03.570Z,20.43
2023-02-20T06:26:31.165Z,20.67
2023-02-20T06:28:58.769Z,19.63
2023-02-20T06:31:28.186Z,20.63
2023-02-20T06:33:56.379Z,22.23
2023-02-20T06:36:26.206Z,19.73
2023-02-20T06:38:57.884Z,19.37
2023-02-20T06:41:25.946Z,17.77
2023-02-20T06:43:53.594Z,20.83
2023-02-20T06:46:22.714Z,21.27
2023-02-20T06:48:52.801Z,22.43
2023-02-20T06:51:21.884Z,22.00
2023-02-20T06:53:49.970Z,26.13
2023-02-20T06:56:21.769Z,27.33
2023-02-20T06:58:51.140Z,27.47
2023-02-20T07:01:20.622Z,23.27
2023-02-20T07:03:50.853Z,23.07
2023-02-20T07:06:19.578Z,23.67
2023-02-20T07:08:47.194Z,21.70
2023-02-20T07:11:17.927Z,25.47
2023-02-20T07:13:46.942Z,23.43
2023-02-20T07:16:15.496Z,25.70
2023-02-20T07:18:43.448Z,27.20
2023-02-20T07:21:11.192Z,24.77
2023-02-20T07:23:38.833Z,24.93
2023-02-20T07:26:06.975Z,24.80
2023-02-20T07:28:35.771Z,26.10
2023-02-20T07:31:05.536Z,23.57
2023-02-20T07:33:33.249Z,26.57
2023-02-20T07:36:00.822Z,27.97
2023-02-20T07:38:28.675Z,28.53
2023-02-20T07:40:56.317Z,27.37
2023-02-20T07:43:23.902Z,27.93
2023-02-20T07:45:51.490Z,27.50
2023-02-20T07:48:20.900Z,29.23
2023-02-20T07:50:49.521Z,26.27
2023-02-20T07:53:19.776Z,26.87
2023-02-20T07:55:47.893Z,29.50
2023-02-20T07:58:15.501Z,29.37
2023-02-20T08:00:43.090Z,28.17
2023-02-20T08:03:10.732Z,27.20
2023-02-20T08:05:48.674Z,31.13
2023-02-20T08:08:16.632Z,27.90
2023-02-20T08:10:44.267Z,34.67
2023-02-20T08:13:12.108Z,29.73
2023-02-20T08:15:41.489Z,28.27
2023-02-20T08:18:18.703Z,29.23
2023-02-20T08:20:52.714Z,30.63
2023-02-20T08:23:22.297Z,32.43
2023-02-20T08:25:50.020Z,31.67
2023-02-20T08:28:17.768Z,34.63
2023-02-20T08:30:46.562Z,32.60
2023-02-20T08:33:15.290Z,36.60
2023-02-20T08:35:43.382Z,31.30
2023-02-20T08:38:26.357Z,32.77
2023-02-20T08:40:54.101Z,35.67
2023-02-20T08:43:21.935Z,35.17
2023-02-20T08:45:49.627Z,35.70
2023-02-20T08:48:17.477Z,30.50
2023-02-20T08:50:46.917Z,37.10
2023-02-20T08:53:14.784Z,34.23
2023-02-20T08:55:44.386Z,33.17
2023-02-20T08:58:12.688Z,30.10
2023-02-20T09:00:40.447Z,31.50
2023-02-20T09:03:08.669Z,35.93
2023-02-20T09:05:39.080Z,36.63
2023-02-20T09:08:07.328Z,39.40
2023-02-20T09:10:35.450Z,37.50
2023-02-20T09:13:04.532Z,40.10
2023-02-20T09:15:38.547Z,35.13
2023-02-20T09:18:09.464Z,37.70
2023-02-20T09:20:38.710Z,41.60
2023-02-20T09:23:07.488Z,35.40
2023-02-20T09:25:35.861Z,34.43
2023-02-20T09:28:05.733Z,40.13
2023-02-20T09:30:33.706Z,39.10
2023-02-20T09:33:01.446Z,43.40
2023-02-20T09:35:31.710Z,41.30
2023-02-20T09:37:59.708Z,40.30
2023-02-20T09:40:30.174Z,51.80
2023-02-20T09:43:18.859Z,41.47
2023-02-20T09:45:56.663Z,37.40
2023-02-20T09:48:39.097Z,36.93
2023-02-20T09:51:12.352Z,39.87
2023-02-20T09:53:48.990Z,41.87
2023-02-20T09:56:21.788Z,39.33
2023-02-20T09:59:00.126Z,40.23
2023-02-20T10:01:29.162Z,36.97
2023-02-20T10:03:59.010Z,42.63
2023-02-20T10:06:29.313Z,35.90
2023-02-20T10:08:57.548Z,31.73
2023-02-20T10:11:38.465Z,37.50
2023-02-20T10:14:31.152Z,37.47
2023-02-20T10:17:06.851Z,40.50
2023-02-20T10:19:42.480Z,33.00
2023-02-20T10:22:14.529Z,33.93
2023-02-20T10:24:54.014Z,40.43
2023-02-20T10:27:31.517Z,33.90
2023-02-20T10:30:05.469Z,32.23
2023-02-20T10:32:39.443Z,30.40
2023-02-20T10:35:11.081Z,32.53
2023-02-20T10:37:47.687Z,28.87
2023-02-20T10:40:24.900Z,29.57
2023-02-20T10:43:00.627Z,29.07
2023-02-20T10:45:40.190Z,26.23
2023-02-20T10:48:09.482Z,25.57
2023-02-20T10:50:42.687Z,23.90
2023-02-20T10:53:20.611Z,23.00
2023-02-20T10:55:54.095Z,26.53
2023-02-20T10:58:27.767Z,28.63
2023-02-20T11:01:00.299Z,22.23
2023-02-20T11:03:35.466Z,19.73
2023-02-20T11:06:05.770Z,18.83
2023-02-20T11:08:33.628Z,16.30
2023-02-20T11:11:18.772Z,15.80
2023-02-20T11:13:46.373Z,17.97
2023-02-20T11:16:24.030Z,15.43
2023-02-20T11:19:07.277Z,18.87
2023-02-20T11:21:38.111Z,20.13
2023-02-20T11:24:20.614Z,16.93
2023-02-20T11:26:52.050Z,20.53
2023-02-20T11:29:22.826Z,16.90
2023-02-20T11:31:52.101Z,15.83
2023-02-20T11:34:22.433Z,16.37
2023-02-20T11:36:53.354Z,12.13
2023-02-20T11:39:24.813Z,13.33
2023-02-20T11:42:07.466Z,12.53
2023-02-20T11:44:35.139Z,14.00
2023-02-20T11:47:27.996Z,17.27
2023-02-20T11:50:20.000Z,11.53
2023-02-20T11:53:05.113Z,12.30
2023-02-20T11:55:33.155Z,12.20
2023-02-20T11:58:02.216Z,13.37
2023-02-20T12:00:44.630Z,14.27
2023-02-20T12:03:15.451Z,9.17
2023-02-20T12:05:44.843Z,9.80
2023-02-20T12:08:48.708Z,10.70
2023-02-20T12:11:18.165Z,14.40
2023-02-20T12:13:47.674Z,13.00
2023-02-20T12:16:38.346Z,10.77
2023-02-20T12:19:15.092Z,14.67
2023-02-20T12:21:56.853Z,13.47
2023-02-20T12:24:39.825Z,13.03
2023-02-20T12:27:23.301Z,10.57
2023-02-20T12:29:59.130Z,11.67
2023-02-20T12:32:39.890Z,13.33
2023-02-20T12:35:26.254Z,11.43
2023-02-20T12:38:06.694Z,9.70
2023-02-20T12:40:42.001Z,9.83
2023-02-20T12:43:24.098Z,9.53
2023-02-20T12:46:04.125Z,11.50
2023-02-20T12:48:42.951Z,8.43
2023-02-20T12:51:23.196Z,7.93
2023-02-20T12:54:05.519Z,8.37
2023-02-20T12:56:50.367Z,8.03
2023-02-20T12:59:28.785Z,14.13
2023-02-20T13:02:01.985Z,7.23
2023-02-20T13:04:36.695Z,8.97
2023-02-20T13:07:11.462Z,10.10
2023-02-20T13:09:45.730Z,8.37
2023-02-20T13:12:18.697Z,9.47
2023-02-20T13:14:57.573Z,8.73
2023-02-20T13:17:36.719Z,12.73
2023-02-20T13:20:17.834Z,10.40
2023-02-20T13:22:59.367Z,13.63
2023-02-20T13:25:49.149Z,10.13
2023-02-20T13:28:26.063Z,8.10
2023-02-20T13:31:24.982Z,10.93
2023-02-20T13:34:27.425Z,10.83
2023-02-20T13:36:55.130Z,12.37
2023-02-20T13:39:42.775Z,11.07
2023-02-20T13:42:31.711Z,8.30
2023-02-20T13:45:00.601Z,7.33
2023-02-20T13:47:36.240Z,9.30
2023-02-20T13:50:04.328Z,11.03
2023-02-20T13:52:37.115Z,6.80
2023-02-20T13:55:29.009Z,9.23
2023-02-20T13:57:58.579Z,10.30
2023-02-20T14:00:31.188Z,9.37
2023-02-20T14:02:58.887Z,8.63
2023-02-20T14:05:29.257Z,7.77
2023-02-20T14:07:57.784Z,9.57
2023-02-20T14:10:29.801Z,8.87
2023-02-20T14:13:02.312Z,15.27
2023-02-20T14:15:32.857Z,8.40
2023-02-20T14:18:02.237Z,10.17
2023-02-20T14:20:36.065Z,15.50
2023-02-20T14:23:08.549Z,9.87
2023-02-20T14:25:38.110Z,11.00
2023-02-20T14:28:14.736Z,8.57
2023-02-20T14:30:42.893Z,11.23
2023-02-20T14:33:25.481Z,9.57
2023-02-20T14:36:14.609Z,14.53
2023-02-20T14:38:57.898Z,8.57
2023-02-20T14:41:27.356Z,9.87
2023-02-20T14:43:58.331Z,10.77
2023-02-20T14:46:28.174Z,12.40
2023-02-20T14:49:07.537Z,11.50
2023-02-20T14:51:35.292Z,8.93
2023-02-20T14:54:17.669Z,9.53
2023-02-20T14:56:47.190Z,10.20
2023-02-20T14:59:25.223Z,11.90
2023-02-20T15:01:55.255Z,7.77
2023-02-20T15:04:23.775Z,12.40
2023-02-20T15:06:55.896Z,13.50
2023-02-20T15:09:23.799Z,7.57
2023-02-20T15:11:58.088Z,10.97
2023-02-20T15:14:29.232Z,10.53
2023-02-20T15:17:22.311Z,10.83
2023-02-20T15:19:50.725Z,9.50
2023-02-20T15:22:27.864Z,12.33
2023-02-20T15:24:55.746Z,11.03
2023-02-20T15:27:29.925Z,12.07
2023-02-20T15:30:14.961Z,9.47
2023-02-20T15:32:44.181Z,11.03
2023-02-20T15:35:16.480Z,12.60
2023-02-20T15:37:49.445Z,11.67
2023-02-20T15:40:22.663Z,12.17
2023-02-20T15:42:56.721Z,12.07
2023-02-20T15:45:25.387Z,13.10
2023-02-20T15:47:53.058Z,10.80
2023-02-20T15:50:21.237Z,14.00
2023-02-20T15:52:49.639Z,9.37
2023-02-20T15:55:20.274Z,13.23
2023-02-20T15:57:49.189Z,12.40
2023-02-20T16:00:23.354Z,11.97
2023-02-20T16:02:51.329Z,9.33
2023-02-20T16:05:19.419Z,12.03
2023-02-20T16:07:47.190Z,18.70
2023-02-20T16:10:17.015Z,11.60
2023-02-20T16:12:45.306Z,11.83
2023-02-20T16:15:17.214Z,11.97
2023-02-20T16:17:46.220Z,14.83
2023-02-20T16:20:19.067Z,11.53
2023-02-20T16:22:46.766Z,10.33
2023-02-20T16:25:18.072Z,11.40
2023-02-20T16:27:47.669Z,16.63
2023-02-20T16:30:32.195Z,8.53
2023-02-20T16:33:05.622Z,10.63
2023-02-20T16:35:33.216Z,9.87
2023-02-20T16:38:01.540Z,15.97
2023-02-20T16:40:29.230Z,12.20
2023-02-20T16:42:56.850Z,12.00
2023-02-20T16:45:24.622Z,12.83
2023-02-20T16:47:54.253Z,13.43
2023-02-20T16:50:26.751Z,12.03
2023-02-20T16:52:55.531Z,13.80
2023-02-20T16:55:26.697Z,11.53
2023-02-20T16:57:54.741Z,12.10
2023-02-20T17:00:25.363Z,9.00
2023-02-20T17:02:53.603Z,12.43
2023-02-20T17:05:24.583Z,9.77
2023-02-20T17:07:52.339Z,7.67
2023-02-20T17:10:20.823Z,8.43
2023-02-20T17:12:48.820Z,8.77
2023-02-20T17:15:18.635Z,10.60
2023-02-20T17:17:46.518Z,7.20
2023-02-20T17:20:16.238Z,11.50
2023-02-20T17:22:50.409Z,7.13
2023-02-20T17:25:24.169Z,8.63
2023-02-20T17:27:52.378Z,8.27
2023-02-20T17:30:22.912Z,8.10
2023-02-20T17:32:50.762Z,10.73
2023-02-20T17:35:18.964Z,7.40
2023-02-20T17:37:49.087Z,9.10
2023-02-20T17:40:18.102Z,7.77
2023-02-20T17:42:48.183Z,6.17
2023-02-20T17:45:16.242Z,6.80
2023-02-20T17:47:44.731Z,8.90
2023-02-20T17:50:12.384Z,5.83
2023-02-20T17:52:40.085Z,7.07
2023-02-20T17:55:09.243Z,6.50
2023-02-20T17:57:36.829Z,7.50
2023-02-20T18:00:06.965Z,8.23
2023-02-20T18:02:34.831Z,5.57
2023-02-20T18:05:02.512Z,5.30
2023-02-20T18:07:30.129Z,5.03
2023-02-20T18:09:58.043Z,6.23
2023-02-20T18:12:28.749Z,4.50
2023-02-20T18:14:56.867Z,5.67
2023-02-20T18:17:24.980Z,5.43
2023-02-20T18:19:52.569Z,6.67
2023-02-20T18:22:20.604Z,5.10
2023-02-20T18:24:49.504Z,6.07
2023-02-20T18:27:17.160Z,6.60
2023-02-20T18:29:46.376Z,5.43
2023-02-20T18:32:14.213Z,6.00
2023-02-20T18:34:41.830Z,5.87
2023-02-20T18:37:09.550Z,7.33
2023-02-20T18:39:37.169Z,5.80
2023-02-20T18:42:05.138Z,6.43
2023-02-20T18:44:32.757Z,5.73
2023-02-20T18:47:02.194Z,6.70
2023-02-20T18:49:29.805Z,5.27
2023-02-20T18:51:57.379Z,7.47
2023-02-20T18:54:29.973Z,4.57
2023-02-20T18:56:57.547Z,4.67
2023-02-20T18:59:27.225Z,4.67
2023-02-20T19:01:55.844Z,4.60
2023-02-20T19:04:27.382Z,6.20
2023-02-20T19:06:55.054Z,6.43
2023-02-20T19:09:25.590Z,5.33
2023-02-20T19:11:58.278Z,4.43
2023-02-20T19:14:29.234Z,6.03
2023-02-20T19:16:58.877Z,4.60
2023-02-20T19:19:30.480Z,5.63
2023-02-20T19:21:58.978Z,5.57
2023-02-20T19:24:26.641Z,4.37
2023-02-20T19:26:54.262Z,4.50
2023-02-20T19:29:22.122Z,4.73
2023-02-20T19:31:49.924Z,5.37
2023-02-20T19:34:17.858Z,5.63
2023-02-20T19:36:46.965Z,3.80
2023-02-20T19:39:15.858Z,4.33
2023-02-20T19:41:43.606Z,4.07
2023-02-20T19:44:15.811Z,4.20
2023-02-20T19:46:43.568Z,4.50
2023-02-20T19:49:12.964Z,5.47
2023-02-20T19:51:48.396Z,7.07
2023-02-20T19:54:16.954Z,5.37
2023-02-20T19:56:48.501Z,5.30
2023-02-20T19:59:16.239Z,5.47
2023-02-20T20:01:49.034Z,6.10
2023-02-20T20:04:16.721Z,9.33
2023-02-20T20:06:44.525Z,7.57
2023-02-20T20:09:18.744Z,7.63
2023-02-20T20:11:55.071Z,8.10
2023-02-20T20:14:23.910Z,7.90
2023-02-20T20:16:52.178Z,9.03
2023-02-20T20:19:20.594Z,7.60
2023-02-20T20:21:50.019Z,8.57
2023-02-20T20:24:18.974Z,9.07
2023-02-20T20:26:46.688Z,7.93
2023-02-20T20:29:14.539Z,8.97
2023-02-20T20:31:43.131Z,8.40
2023-02-20T20:34:11.120Z,9.13
2023-02-20T20:36:38.962Z,8.20
2023-02-20T20:39:07.048Z,7.47
2023-02-20T20:41:44.930Z,6.70
2023-02-20T20:44:13.233Z,8.43
2023-02-20T20:46:41.341Z,7.57
2023-02-20T20:49:08.966Z,9.17
2023-02-20T20:51:36.599Z,9.00
2023-02-20T20:54:06.387Z,9.07
2023-02-20T20:56:36.215Z,8.13
2023-02-20T20:59:04.576Z,8.90
2023-02-20T21:01:32.214Z,9.13
2023-02-20T21:03:59.799Z,9.63
2023-02-20T21:06:27.544Z,10.00
2023-02-20T21:08:55.158Z,8.27
2023-02-20T21:11:24.131Z,10.70
2023-02-20T21:13:53.402Z,9.43
2023-02-20T21:16:21.016Z,8.80
2023-02-20T21:18:48.762Z,10.03
2023-02-20T21:21:16.482Z,12.00
2023-02-20T21:23:45.368Z,10.07
2023-02-20T21:26:13.088Z,13.07
2023-02-20T21:28:41.087Z,13.07
2023-02-20T21:31:10.334Z,11.37
2023-02-20T21:33:39.210Z,11.23
2023-02-20T21:36:07.559Z,12.30
2023-02-20T21:38:35.990Z,12.20
2023-02-20T21:41:03.831Z,11.73
2023-02-20T21:43:48.805Z,11.17
2023-02-20T21:46:19.426Z,10.67
2023-02-20T21:48:47.043Z,9.73
2023-02-20T21:51:15.195Z,9.30
2023-02-20T21:53:43.079Z,11.53
2023-02-20T21:56:10.650Z,11.63
2023-02-20T21:58:57.111Z,10.33
2023-02-20T22:01:24.967Z,9.70
2023-02-20T22:03:51.751Z,11.80
2023-02-20T22:06:18.285Z,9.37
2023-02-20T22:09:03.698Z,13.43
2023-02-20T22:11:50.283Z,11.73
2023-02-20T22:14:36.053Z,10.07
2023-02-20T22:17:23.431Z,13.20
2023-02-20T22:20:09.329Z,10.57
2023-02-20T22:22:56.037Z,11.90
2023-02-20T22:25:42.025Z,10.57
2023-02-20T22:28:27.292Z,13.60
2023-02-20T22:31:12.887Z,12.90
2023-02-20T22:34:02.235Z,15.67
2023-02-20T22:36:47.701Z,9.67
2023-02-20T22:39:34.210Z,11.73
2023-02-20T22:42:23.287Z,10.80
2023-02-20T22:45:15.139Z,11.27
2023-02-20T22:48:05.635Z,13.13
2023-02-20T22:50:52.285Z,12.27
2023-02-20T22:53:37.290Z,11.90
2023-02-20T22:56:23.250Z,14.43
2023-02-20T22:59:08.379Z,14.03
2023-02-20T23:01:53.650Z,11.80
2023-02-20T23:04:38.822Z,13.43
2023-02-20T23:07:25.454Z,12.43
2023-02-20T23:10:10.840Z,14.10
2023-02-20T23:12:56.225Z,15.30
2023-02-20T23:15:41.570Z,11.47
2023-02-20T23:18:27.918Z,12.20
2023-02-20T23:21:13.594Z,13.93
2023-02-20T23:24:00.335Z,12.40
2023-02-20T23:26:45.616Z,13.83
2023-02-20T23:29:30.955Z,12.53
2023-02-20T23:32:16.441Z,12.07
2023-02-20T23:35:01.631Z,13.70
2023-02-20T23:37:47.397Z,11.30
2023-02-20T23:40:37.144Z,12.47
2023-02-20T23:43:23.165Z,12.70
2023-02-20T23:46:08.668Z,13.73
2023-02-20T23:48:54.252Z,13.47
2023-02-20T23:51:39.658Z,12.00
2023-02-20T23:54:24.890Z,10.93
2023-02-20T23:57:11.505Z,9.57
2023-02-20T23:59:56.850Z,10.23
